createdAt,value
2018-12-29T00:01:23.626Z,11.83
2018-12-29T00:03:49.723Z,11.94
2018-12-29T00:06:15.794Z,11.96
2018-12-29T00:08:41.856Z,11.99
2018-12-29T00:11:07.934Z,11.95
2018-12-29T00:13:34.045Z,12.02
2018-12-29T00:16:00.585Z,12.00
2018-12-29T00:18:27.015Z,12.44
2018-12-29T00:20:53.509Z,12.06
2018-12-29T00:23:19.866Z,12.02
2018-12-29T00:25:49.319Z,11.92
2018-12-29T00:28:15.715Z,11.98
2018-12-29T00:30:42.072Z,12.12
2018-12-29T00:33:08.617Z,12.12
2018-12-29T00:35:34.714Z,12.08
2018-12-29T00:38:00.799Z,12.40
2018-12-29T00:40:26.870Z,12.42
2018-12-29T00:42:52.889Z,12.23
2018-12-29T00:45:18.929Z,12.20
2018-12-29T00:47:45.032Z,12.11
2018-12-29T00:50:11.043Z,12.33
2018-12-29T00:52:37.137Z,12.21
2018-12-29T00:55:03.133Z,12.28
2018-12-29T00:57:29.214Z,12.17
2018-12-29T00:59:55.326Z,12.03
2018-12-29T01:02:21.381Z,12.05
2018-12-29T01:04:47.722Z,12.03
2018-12-29T01:07:13.859Z,12.02
2018-12-29T01:09:39.910Z,12.03
2018-12-29T01:12:06.006Z,12.06
2018-12-29T01:14:32.389Z,12.00
2018-12-29T01:16:58.499Z,11.93
2018-12-29T01:19:24.643Z,11.92
2018-12-29T01:21:50.750Z,11.88
2018-12-29T01:24:16.834Z,11.91
2018-12-29T01:26:42.880Z,11.93
2018-12-29T01:29:08.997Z,11.93
2018-12-29T01:31:35.454Z,11.88
2018-12-29T01:34:01.557Z,11.94
2018-12-29T01:36:27.679Z,11.96
2018-12-29T01:38:54.009Z,11.87
2018-12-29T01:41:20.129Z,11.88
2018-12-29T01:43:46.426Z,11.84
2018-12-29T01:46:12.469Z,11.97
2018-12-29T01:48:38.555Z,11.95
2018-12-29T01:51:04.869Z,11.94
2018-12-29T01:53:31.114Z,12.08
2018-12-29T01:55:57.270Z,12.05
2018-12-29T01:58:23.357Z,12.01
2018-12-29T02:00:49.459Z,11.86
2018-12-29T02:03:15.764Z,12.06
2018-12-29T02:05:41.897Z,12.03
2018-12-29T02:08:08.047Z,11.97
2018-12-29T02:10:34.110Z,11.98
2018-12-29T02:13:06.216Z,11.96
2018-12-29T02:15:27.983Z,12.21
2018-12-29T02:17:54.023Z,12.00
2018-12-29T02:20:20.064Z,12.02
2018-12-29T02:22:46.119Z,11.93
2018-12-29T02:25:12.140Z,12.03
2018-12-29T02:27:38.242Z,12.26
2018-12-29T02:30:04.253Z,12.29
2018-12-29T02:32:30.362Z,12.09
2018-12-29T02:34:56.697Z,12.01
2018-12-29T02:37:22.756Z,12.13
2018-12-29T02:39:48.774Z,12.27
2018-12-29T02:42:14.875Z,12.14
2018-12-29T02:44:40.884Z,12.04
2018-12-29T02:47:07.000Z,12.20
2018-12-29T02:49:33.340Z,12.09
2018-12-29T02:51:59.469Z,11.95
2018-12-29T02:54:25.549Z,11.94
2018-12-29T02:56:51.649Z,11.91
2018-12-29T02:59:17.738Z,11.92
2018-12-29T03:01:44.099Z,11.96
2018-12-29T03:04:10.429Z,11.90
2018-12-29T03:06:36.478Z,12.00
2018-12-29T03:09:02.925Z,11.92
2018-12-29T03:11:29.002Z,12.04
2018-12-29T03:13:55.055Z,12.03
2018-12-29T03:16:21.123Z,12.23
2018-12-29T03:18:47.525Z,12.29
2018-12-29T03:21:13.603Z,12.12
2018-12-29T03:23:39.607Z,12.07
2018-12-29T03:26:05.626Z,11.98
2018-12-29T03:28:31.713Z,11.98
2018-12-29T03:30:58.163Z,11.97
2018-12-29T03:33:24.464Z,12.22
2018-12-29T03:35:50.540Z,12.06
2018-12-29T03:38:16.589Z,11.95
2018-12-29T03:40:42.733Z,11.91
2018-12-29T03:43:08.852Z,11.97
2018-12-29T03:45:34.918Z,11.87
2018-12-29T03:48:00.933Z,11.84
2018-12-29T03:50:26.952Z,11.89
2018-12-29T03:52:53.311Z,11.94
2018-12-29T03:55:19.681Z,12.01
2018-12-29T03:57:45.998Z,11.95
2018-12-29T04:00:11.995Z,11.99
2018-12-29T04:02:38.025Z,12.01
2018-12-29T04:05:04.134Z,11.98
2018-12-29T04:07:30.206Z,11.97
2018-12-29T04:09:56.525Z,11.97
2018-12-29T04:12:22.541Z,11.94
2018-12-29T04:14:48.584Z,11.97
2018-12-29T04:17:14.964Z,11.79
2018-12-29T04:19:41.053Z,11.83
2018-12-29T04:22:07.133Z,11.91
2018-12-29T04:24:33.236Z,11.84
2018-12-29T04:26:59.582Z,11.94
2018-12-29T04:29:25.891Z,11.96
2018-12-29T04:31:52.006Z,11.88
2018-12-29T04:34:18.224Z,11.92
2018-12-29T04:36:44.538Z,12.03
2018-12-29T04:39:10.597Z,12.05
2018-12-29T04:41:36.678Z,12.04
2018-12-29T04:44:02.972Z,12.08
2018-12-29T04:46:29.074Z,11.92
2018-12-29T04:48:55.159Z,12.00
2018-12-29T04:51:21.181Z,12.02
2018-12-29T04:53:47.274Z,11.93
2018-12-29T04:56:13.298Z,11.92
2018-12-29T04:58:39.653Z,11.85
2018-12-29T05:01:05.690Z,11.91
2018-12-29T05:03:31.955Z,11.97
2018-12-29T05:05:57.975Z,12.01
2018-12-29T05:08:24.005Z,11.84
2018-12-29T05:10:50.360Z,11.86
2018-12-29T05:13:16.375Z,11.98
2018-12-29T05:15:42.754Z,11.93
2018-12-29T05:18:09.141Z,11.92
2018-12-29T05:20:35.423Z,11.98
2018-12-29T05:23:01.427Z,11.96
2018-12-29T05:25:27.760Z,12.01
2018-12-29T05:27:53.778Z,11.97
2018-12-29T05:30:19.867Z,11.85
2018-12-29T05:32:45.889Z,11.80
2018-12-29T05:35:11.991Z,11.90
2018-12-29T05:37:38.386Z,11.94
2018-12-29T05:40:04.732Z,11.85
2018-12-29T05:42:31.031Z,11.75
2018-12-29T05:44:57.124Z,11.83
2018-12-29T05:47:23.214Z,11.82
2018-12-29T05:49:49.329Z,11.88
2018-12-29T05:52:15.407Z,11.84
2018-12-29T05:54:41.515Z,11.81
2018-12-29T05:57:07.537Z,11.93
2018-12-29T05:59:33.560Z,11.94
2018-12-29T06:01:59.604Z,11.99
2018-12-29T06:04:26.394Z,11.91
2018-12-29T06:06:52.481Z,11.78
2018-12-29T06:09:18.789Z,11.71
2018-12-29T06:11:44.883Z,11.77
2018-12-29T06:14:10.962Z,11.84
2018-12-29T06:16:37.049Z,11.87
2018-12-29T06:19:03.082Z,11.74
2018-12-29T06:21:29.444Z,11.76
2018-12-29T06:23:55.450Z,11.73
2018-12-29T06:26:21.765Z,11.76
2018-12-29T06:28:48.107Z,11.78
2018-12-29T06:31:14.421Z,11.69
2018-12-29T06:33:40.765Z,11.85
2018-12-29T06:36:06.804Z,11.85
2018-12-29T06:38:32.796Z,11.76
2018-12-29T06:40:58.812Z,11.70
2018-12-29T06:43:24.845Z,11.67
2018-12-29T06:45:51.190Z,11.63
2018-12-29T06:48:17.210Z,11.69
2018-12-29T06:50:43.308Z,11.71
2018-12-29T06:53:09.361Z,11.67
2018-12-29T06:55:35.741Z,11.69
2018-12-29T06:58:01.825Z,11.72
2018-12-29T07:00:28.201Z,11.83
2018-12-29T07:02:54.262Z,11.83
2018-12-29T07:05:20.309Z,11.64
2018-12-29T07:07:46.380Z,11.68
2018-12-29T07:10:12.509Z,11.65
2018-12-29T07:12:38.865Z,11.59
2018-12-29T07:15:04.937Z,11.50
2018-12-29T07:17:30.977Z,11.59
2018-12-29T07:19:57.310Z,11.61
2018-12-29T07:22:23.324Z,11.77
2018-12-29T07:24:49.697Z,11.74
2018-12-29T07:27:15.702Z,11.79
2018-12-29T07:29:42.053Z,11.81
2018-12-29T07:32:08.458Z,11.79
2018-12-29T07:34:35.055Z,11.80
2018-12-29T07:37:01.554Z,11.83
2018-12-29T07:39:27.643Z,11.89
2018-12-29T07:41:54.025Z,11.99
2018-12-29T07:44:20.077Z,12.07
2018-12-29T07:46:49.631Z,11.97
2018-12-29T07:49:13.844Z,12.08
2018-12-29T07:51:40.248Z,11.94
2018-12-29T07:54:06.537Z,11.86
2018-12-29T07:56:32.901Z,11.85
2018-12-29T07:58:59.008Z,11.81
2018-12-29T08:01:25.134Z,11.79
2018-12-29T08:03:51.210Z,11.93
2018-12-29T08:06:17.301Z,11.92
2018-12-29T08:08:43.633Z,11.82
2018-12-29T08:11:10.097Z,11.81
2018-12-29T08:13:36.531Z,11.61
2018-12-29T08:16:02.974Z,11.95
2018-12-29T08:18:29.371Z,11.91
2018-12-29T08:20:55.385Z,11.86
2018-12-29T08:23:21.705Z,11.92
2018-12-29T08:25:47.845Z,12.03
2018-12-29T08:28:13.874Z,12.12
2018-12-29T08:30:39.966Z,11.99
2018-12-29T08:33:06.454Z,12.15
2018-12-29T08:35:32.479Z,12.13
2018-12-29T08:37:58.550Z,12.00
2018-12-29T08:40:24.571Z,12.08
2018-12-29T08:42:50.924Z,11.99
2018-12-29T08:45:17.009Z,11.99
2018-12-29T08:47:43.121Z,11.85
2018-12-29T08:50:12.939Z,11.89
2018-12-29T08:52:37.004Z,12.03
2018-12-29T08:55:03.055Z,12.21
2018-12-29T08:57:29.565Z,12.05
2018-12-29T08:59:55.892Z,12.08
2018-12-29T09:02:22.173Z,12.13
2018-12-29T09:04:48.218Z,12.02
2018-12-29T09:07:14.674Z,12.04
2018-12-29T09:09:40.677Z,12.11
2018-12-29T09:12:06.724Z,12.14
2018-12-29T09:14:33.054Z,12.19
2018-12-29T09:16:59.095Z,12.11
2018-12-29T09:19:27.369Z,12.04
2018-12-29T09:21:52.948Z,12.09
2018-12-29T09:24:18.961Z,11.97
2018-12-29T09:26:45.326Z,11.91
2018-12-29T09:29:11.385Z,12.02
2018-12-29T09:31:37.466Z,12.08
2018-12-29T09:34:03.916Z,11.99
2018-12-29T09:36:29.990Z,11.98
2018-12-29T09:38:56.000Z,12.24
2018-12-29T09:41:22.062Z,12.25
2018-12-29T09:43:48.215Z,12.13
2018-12-29T09:46:14.274Z,12.33
2018-12-29T09:48:40.384Z,12.31
2018-12-29T09:51:06.803Z,12.24
2018-12-29T09:53:33.248Z,12.33
2018-12-29T09:55:59.337Z,12.35
2018-12-29T09:58:25.940Z,12.26
2018-12-29T10:00:52.443Z,12.30
2018-12-29T10:03:18.932Z,12.27
2018-12-29T10:05:44.997Z,12.21
2018-12-29T10:08:11.110Z,12.48
2018-12-29T10:10:37.131Z,12.52
2018-12-29T10:13:03.270Z,12.43
2018-12-29T10:15:29.364Z,12.29
2018-12-29T10:17:55.511Z,12.34
2018-12-29T10:20:21.587Z,12.37
2018-12-29T10:22:48.073Z,12.41
2018-12-29T10:25:14.081Z,12.79
2018-12-29T10:27:42.909Z,12.52
2018-12-29T10:30:09.331Z,12.37
2018-12-29T10:32:35.760Z,12.31
2018-12-29T10:35:01.880Z,12.51
2018-12-29T10:37:29.116Z,12.59
2018-12-29T10:39:55.306Z,12.70
2018-12-29T10:42:21.336Z,12.69
2018-12-29T10:44:47.421Z,12.46
2018-12-29T10:47:13.446Z,12.45
2018-12-29T10:49:39.540Z,12.35
2018-12-29T10:52:05.584Z,12.55
2018-12-29T10:54:32.142Z,12.45
2018-12-29T10:56:58.566Z,12.35
2018-12-29T10:59:25.008Z,12.34
2018-12-29T11:01:51.124Z,12.32
2018-12-29T11:04:18.381Z,12.40
2018-12-29T11:06:47.992Z,12.44
2018-12-29T11:09:14.119Z,12.68
2018-12-29T11:11:40.159Z,12.47
2018-12-29T11:14:06.270Z,12.37
2018-12-29T11:16:32.372Z,12.49
2018-12-29T11:18:58.739Z,12.51
2018-12-29T11:21:24.785Z,12.27
2018-12-29T11:23:50.824Z,12.45
2018-12-29T11:26:16.922Z,12.58
2018-12-29T11:28:42.954Z,12.67
2018-12-29T11:31:09.300Z,12.58
2018-12-29T11:33:35.713Z,12.55
2018-12-29T11:36:02.081Z,12.62
2018-12-29T11:38:28.430Z,12.49
2018-12-29T11:40:54.785Z,12.42
2018-12-29T11:43:20.862Z,12.34
2018-12-29T11:45:46.952Z,12.30
2018-12-29T11:48:13.363Z,12.25
2018-12-29T11:50:39.480Z,12.28
2018-12-29T11:53:05.925Z,12.17
2018-12-29T11:55:32.050Z,12.36
2018-12-29T11:57:58.778Z,12.40
2018-12-29T12:00:25.229Z,12.37
2018-12-29T12:02:51.311Z,12.34
2018-12-29T12:05:17.441Z,12.45
2018-12-29T12:07:43.533Z,12.41
2018-12-29T12:10:10.054Z,12.55
2018-12-29T12:12:36.974Z,12.75
2018-12-29T12:15:03.425Z,12.73
2018-12-29T12:17:29.513Z,12.56
2018-12-29T12:19:55.621Z,12.59
2018-12-29T12:22:22.121Z,12.61
2018-12-29T12:24:48.537Z,12.78
2018-12-29T12:27:14.997Z,12.61
2018-12-29T12:29:41.717Z,12.55
2018-12-29T12:32:07.828Z,12.49
2018-12-29T12:34:33.957Z,12.62
2018-12-29T12:37:00.309Z,12.59
2018-12-29T12:39:26.444Z,12.64
2018-12-29T12:41:52.604Z,12.63
2018-12-29T12:44:18.690Z,12.61
2018-12-29T12:46:44.799Z,12.56
2018-12-29T12:49:11.225Z,12.47
2018-12-29T12:51:37.380Z,12.76
2018-12-29T12:54:03.783Z,12.67
2018-12-29T12:56:29.890Z,12.63
2018-12-29T12:58:56.004Z,12.58
2018-12-29T13:01:22.482Z,12.53
2018-12-29T13:03:48.572Z,12.56
2018-12-29T13:06:14.928Z,12.52
2018-12-29T13:08:41.080Z,12.61
2018-12-29T13:11:07.208Z,12.70
2018-12-29T13:13:33.281Z,12.74
2018-12-29T13:15:59.660Z,12.73
2018-12-29T13:18:26.009Z,12.80
2018-12-29T13:20:52.129Z,12.74
2018-12-29T13:23:18.471Z,12.67
2018-12-29T13:25:44.584Z,12.40
2018-12-29T13:28:10.694Z,12.54
2018-12-29T13:30:36.837Z,12.48
2018-12-29T13:33:02.955Z,12.58
2018-12-29T13:35:29.035Z,12.35
2018-12-29T13:37:55.223Z,12.62
2018-12-29T13:40:21.304Z,12.55
2018-12-29T13:42:47.658Z,12.44
2018-12-29T13:45:13.775Z,12.51
2018-12-29T13:47:40.170Z,12.62
2018-12-29T13:50:06.519Z,12.57
2018-12-29T13:52:32.656Z,12.53
2018-12-29T13:54:59.019Z,12.57
2018-12-29T13:57:27.180Z,12.60
2018-12-29T13:59:53.292Z,12.70
2018-12-29T14:02:19.381Z,12.57
2018-12-29T14:04:45.485Z,12.69
2018-12-29T14:07:11.947Z,12.66
2018-12-29T14:09:38.385Z,12.60
2018-12-29T14:12:04.786Z,12.64
2018-12-29T14:14:31.162Z,12.54
2018-12-29T14:16:57.540Z,12.66
2018-12-29T14:19:23.629Z,12.81
2018-12-29T14:21:49.753Z,12.63
2018-12-29T14:24:16.186Z,12.74
2018-12-29T14:26:42.690Z,12.67
2018-12-29T14:29:08.790Z,12.65
2018-12-29T14:31:34.999Z,12.62
2018-12-29T14:34:01.032Z,12.47
2018-12-29T14:36:27.124Z,12.50
2018-12-29T14:38:53.361Z,12.48
2018-12-29T14:41:19.853Z,12.49
2018-12-29T14:43:46.233Z,12.50
2018-12-29T14:46:12.613Z,12.57
2018-12-29T14:48:39.068Z,12.59
2018-12-29T14:51:05.388Z,12.63
2018-12-29T14:53:31.505Z,12.63
2018-12-29T14:55:58.113Z,12.71
2018-12-29T14:58:24.229Z,12.60
2018-12-29T15:00:50.311Z,12.66
2018-12-29T15:03:16.825Z,12.68
2018-12-29T15:05:43.136Z,12.59
2018-12-29T15:08:09.528Z,12.22
2018-12-29T15:10:36.021Z,12.47
2018-12-29T15:13:02.168Z,12.70
2018-12-29T15:15:28.329Z,12.63
2018-12-29T15:17:54.789Z,12.56
2018-12-29T15:20:21.566Z,12.62
2018-12-29T15:22:47.654Z,12.60
2018-12-29T15:25:13.776Z,12.81
2018-12-29T15:27:39.979Z,12.70
2018-12-29T15:30:06.432Z,12.51
2018-12-29T15:32:32.560Z,12.47
2018-12-29T15:34:59.037Z,12.59
2018-12-29T15:37:25.119Z,12.60
2018-12-29T15:39:51.295Z,12.62
2018-12-29T15:42:18.039Z,12.55
2018-12-29T15:44:44.434Z,12.53
2018-12-29T15:47:10.527Z,12.53
2018-12-29T15:49:36.896Z,12.45
2018-12-29T15:52:03.022Z,12.47
2018-12-29T15:54:29.897Z,12.37
2018-12-29T15:56:55.998Z,12.46
2018-12-29T15:59:22.074Z,12.42
2018-12-29T16:01:48.464Z,12.49
2018-12-29T16:04:14.840Z,12.58
2018-12-29T16:06:41.198Z,12.72
2018-12-29T16:09:07.361Z,12.65
2018-12-29T16:11:33.994Z,12.49
2018-12-29T16:14:00.164Z,12.52
2018-12-29T16:16:26.280Z,12.33
2018-12-29T16:18:58.673Z,12.44
2018-12-29T16:21:20.125Z,12.49
2018-12-29T16:23:46.518Z,12.49
2018-12-29T16:26:13.331Z,12.59
2018-12-29T16:28:40.360Z,12.54
2018-12-29T16:31:06.968Z,12.69
2018-12-29T16:33:33.803Z,12.56
2018-12-29T16:36:00.309Z,12.55
2018-12-29T16:38:26.431Z,12.57
2018-12-29T16:40:57.817Z,12.62
2018-12-29T16:43:20.582Z,12.71
2018-12-29T16:45:48.260Z,12.77
2018-12-29T16:48:14.871Z,12.76
2018-12-29T16:50:42.358Z,12.68
2018-12-29T16:53:08.505Z,12.72
2018-12-29T16:55:34.655Z,12.72
2018-12-29T16:58:01.212Z,12.61
2018-12-29T17:00:27.341Z,12.50
2018-12-29T17:02:53.428Z,12.53
2018-12-29T17:05:19.535Z,12.59
2018-12-29T17:07:46.049Z,12.62
2018-12-29T17:10:12.482Z,12.75
2018-12-29T17:12:38.937Z,12.73
2018-12-29T17:15:05.770Z,12.74
2018-12-29T17:17:31.858Z,12.69
2018-12-29T17:19:58.006Z,12.59
2018-12-29T17:22:24.104Z,12.54
2018-12-29T17:24:50.566Z,12.74
2018-12-29T17:27:16.930Z,12.78
2018-12-29T17:29:43.041Z,12.65
2018-12-29T17:32:09.407Z,12.65
2018-12-29T17:34:35.882Z,12.58
2018-12-29T17:37:02.443Z,12.79
2018-12-29T17:39:28.514Z,12.69
2018-12-29T17:41:58.451Z,12.57
2018-12-29T17:44:24.565Z,12.63
2018-12-29T17:46:50.946Z,12.59
2018-12-29T17:49:23.067Z,12.63
2018-12-29T17:51:45.390Z,12.66
2018-12-29T17:54:11.490Z,12.58
2018-12-29T17:56:37.623Z,12.73
2018-12-29T17:59:03.947Z,12.71
2018-12-29T18:01:30.484Z,12.69
2018-12-29T18:03:56.561Z,12.73
2018-12-29T18:06:23.022Z,12.77
2018-12-29T18:08:49.100Z,13.11
2018-12-29T18:11:15.246Z,12.82
2018-12-29T18:13:41.335Z,12.70
2018-12-29T18:16:08.967Z,12.65
2018-12-29T18:18:35.333Z,12.56
2018-12-29T18:21:01.430Z,12.55
2018-12-29T18:23:28.177Z,12.69
2018-12-29T18:25:54.288Z,12.74
2018-12-29T18:28:20.622Z,12.74
2018-12-29T18:30:46.764Z,12.89
2018-12-29T18:33:13.666Z,12.76
2018-12-29T18:35:39.784Z,12.81
2018-12-29T18:38:05.884Z,12.82
2018-12-29T18:40:32.375Z,12.80
2018-12-29T18:42:58.516Z,12.83
2018-12-29T18:45:25.336Z,12.88
2018-12-29T18:47:51.496Z,13.06
2018-12-29T18:50:17.589Z,13.00
2018-12-29T18:52:43.713Z,12.80
2018-12-29T18:55:10.456Z,12.94
2018-12-29T18:57:36.872Z,12.79
2018-12-29T19:00:02.971Z,12.81
2018-12-29T19:02:29.114Z,12.62
2018-12-29T19:04:55.202Z,12.54
2018-12-29T19:07:21.829Z,12.50
2018-12-29T19:09:48.196Z,12.50
2018-12-29T19:12:14.294Z,12.57
2018-12-29T19:14:40.395Z,12.55
2018-12-29T19:17:06.476Z,12.48
2018-12-29T19:19:33.138Z,12.55
2018-12-29T19:21:59.502Z,12.60
2018-12-29T19:24:25.631Z,12.32
2018-12-29T19:26:51.708Z,12.66
2018-12-29T19:29:17.816Z,12.69
2018-12-29T19:31:44.665Z,12.71
2018-12-29T19:34:11.727Z,12.65
2018-12-29T19:36:37.824Z,12.37
2018-12-29T19:39:04.220Z,12.57
2018-12-29T19:41:30.315Z,12.57
2018-12-29T19:43:56.705Z,12.68
2018-12-29T19:46:23.557Z,12.46
2018-12-29T19:48:49.709Z,12.31
2018-12-29T19:51:15.839Z,12.24
2018-12-29T19:53:42.252Z,12.41
2018-12-29T19:56:08.347Z,12.26
2018-12-29T19:58:34.463Z,12.34
2018-12-29T20:01:00.592Z,12.56
2018-12-29T20:03:26.703Z,12.41
2018-12-29T20:05:53.119Z,12.56
2018-12-29T20:08:19.207Z,12.39
2018-12-29T20:10:45.521Z,12.47
2018-12-29T20:13:11.901Z,12.50
2018-12-29T20:15:37.987Z,12.49
2018-12-29T20:18:04.400Z,12.43
2018-12-29T20:20:30.517Z,12.39
2018-12-29T20:22:56.602Z,12.14
2018-12-29T20:25:25.037Z,12.14
2018-12-29T20:27:51.205Z,12.18
2018-12-29T20:30:17.693Z,12.18
2018-12-29T20:32:44.043Z,12.31
2018-12-29T20:35:10.437Z,12.15
2018-12-29T20:37:36.514Z,12.21
2018-12-29T20:40:02.633Z,12.18
2018-12-29T20:42:28.733Z,12.23
2018-12-29T20:44:57.108Z,12.01
2018-12-29T20:47:23.172Z,12.07
2018-12-29T20:49:49.571Z,12.09
2018-12-29T20:52:15.918Z,12.10
2018-12-29T20:54:42.068Z,12.04
2018-12-29T20:57:08.453Z,12.04
2018-12-29T20:59:34.870Z,12.00
2018-12-29T21:02:01.324Z,12.03
2018-12-29T21:04:27.848Z,11.81
2018-12-29T21:06:54.264Z,12.05
2018-12-29T21:09:20.362Z,12.19
2018-12-29T21:11:46.745Z,12.22
2018-12-29T21:14:13.386Z,12.11
2018-12-29T21:16:39.826Z,11.99
2018-12-29T21:19:06.042Z,11.87
2018-12-29T21:21:32.439Z,12.02
2018-12-29T21:23:58.580Z,12.06
2018-12-29T21:26:24.694Z,12.12
2018-12-29T21:28:51.152Z,12.22
2018-12-29T21:31:17.839Z,12.14
2018-12-29T21:33:43.942Z,12.10
2018-12-29T21:36:10.406Z,12.01
2018-12-29T21:38:37.975Z,11.98
2018-12-29T21:41:04.104Z,12.02
2018-12-29T21:43:30.492Z,12.22
2018-12-29T21:45:56.603Z,12.46
2018-12-29T21:48:23.083Z,12.26
2018-12-29T21:50:49.175Z,12.20
2018-12-29T21:53:15.577Z,12.24
2018-12-29T21:55:43.271Z,11.76
2018-12-29T21:58:09.508Z,12.03
2018-12-29T22:00:35.906Z,12.17
2018-12-29T22:03:01.987Z,11.86
2018-12-29T22:05:28.340Z,11.91
2018-12-29T22:07:54.517Z,11.93
2018-12-29T22:10:21.525Z,12.10
2018-12-29T22:12:47.893Z,12.09
2018-12-29T22:15:14.001Z,12.23
2018-12-29T22:17:40.187Z,12.17
2018-12-29T22:20:06.612Z,11.75
2018-12-29T22:22:32.726Z,12.17
2018-12-29T22:24:58.857Z,12.17
2018-12-29T22:27:25.132Z,12.38
2018-12-29T22:29:51.261Z,12.31
2018-12-29T22:32:17.389Z,12.20
2018-12-29T22:34:43.501Z,12.17
2018-12-29T22:37:10.212Z,12.19
2018-12-29T22:39:36.251Z,12.22
2018-12-29T22:42:02.384Z,11.96
2018-12-29T22:44:28.537Z,12.02
2018-12-29T22:46:54.629Z,12.31
2018-12-29T22:49:21.068Z,12.25
2018-12-29T22:51:47.471Z,12.38
2018-12-29T22:54:13.678Z,12.38
2018-12-29T22:56:39.875Z,12.22
2018-12-29T22:59:05.990Z,12.35
2018-12-29T23:01:32.103Z,12.59
2018-12-29T23:03:58.496Z,12.48
2018-12-29T23:06:24.986Z,12.11
2018-12-29T23:08:51.052Z,12.24
2018-12-29T23:11:17.520Z,12.44
2018-12-29T23:13:43.970Z,12.43
2018-12-29T23:16:10.135Z,12.37
2018-12-29T23:18:36.311Z,12.52
2018-12-29T23:21:02.400Z,12.51
2018-12-29T23:23:28.772Z,12.45
2018-12-29T23:25:55.517Z,12.59
2018-12-29T23:28:21.628Z,12.29
2018-12-29T23:30:48.229Z,12.56
2018-12-29T23:33:14.585Z,12.16
2018-12-29T23:35:40.803Z,12.31
2018-12-29T23:38:07.799Z,11.97
2018-12-29T23:40:34.153Z,11.91
2018-12-29T23:43:00.269Z,12.27
2018-12-29T23:45:28.542Z,11.91
2018-12-29T23:47:56.746Z,12.00
2018-12-29T23:50:22.796Z,12.14
2018-12-29T23:52:49.829Z,12.40
2018-12-29T23:55:16.362Z,11.95
2018-12-29T23:57:43.020Z,12.02
